createdAt,value
2023-01-29T00:01:23.876Z,5.89
2023-01-29T00:03:51.991Z,4.19
2023-01-29T00:06:19.367Z,2.60
2023-01-29T00:08:47.071Z,4.00
2023-01-29T00:11:14.147Z,6.42
2023-01-29T00:13:40.858Z,6.70
2023-01-29T00:16:07.732Z,6.69
2023-01-29T00:18:39.015Z,6.51
2023-01-29T00:21:13.565Z,6.37
2023-01-29T00:23:40.549Z,4.60
2023-01-29T00:26:07.541Z,4.35
2023-01-29T00:28:35.122Z,2.13
2023-01-29T00:31:14.393Z,-0.05
2023-01-29T00:33:41.315Z,3.34
2023-01-29T00:36:11.092Z,4.00
2023-01-29T00:38:39.106Z,4.67
2023-01-29T00:41:26.067Z,5.80
2023-01-29T00:44:11.871Z,5.11
2023-01-29T00:46:38.999Z,5.59
2023-01-29T00:49:06.748Z,5.69
2023-01-29T00:51:34.002Z,5.25
2023-01-29T00:54:01.222Z,5.90
2023-01-29T00:56:29.557Z,5.70
2023-01-29T00:58:56.849Z,5.33
2023-01-29T01:01:43.380Z,5.06
2023-01-29T01:04:12.307Z,4.20
2023-01-29T01:06:40.501Z,4.60
2023-01-29T01:09:28.598Z,2.08
2023-01-29T01:11:55.984Z,4.13
2023-01-29T01:14:22.784Z,3.55
2023-01-29T01:16:50.010Z,5.14
2023-01-29T01:19:17.256Z,5.21
2023-01-29T01:21:47.092Z,4.70
2023-01-29T01:24:14.893Z,2.82
2023-01-29T01:26:42.033Z,4.49
2023-01-29T01:29:09.474Z,4.16
2023-01-29T01:31:36.269Z,2.14
2023-01-29T01:34:03.044Z,4.48
2023-01-29T01:36:32.378Z,4.59
2023-01-29T01:38:59.262Z,2.38
2023-01-29T01:41:26.280Z,5.81
2023-01-29T01:44:01.811Z,5.14
2023-01-29T01:46:30.005Z,6.42
2023-01-29T01:49:13.591Z,5.24
2023-01-29T01:51:46.139Z,5.81
2023-01-29T01:54:22.460Z,6.86
2023-01-29T01:56:55.844Z,5.22
2023-01-29T01:59:23.963Z,4.43
2023-01-29T02:01:54.401Z,4.60
2023-01-29T02:04:43.122Z,6.50
2023-01-29T02:07:31.923Z,4.54
2023-01-29T02:10:12.412Z,3.93
2023-01-29T02:12:39.422Z,4.37
2023-01-29T02:15:07.376Z,5.29
2023-01-29T02:17:34.391Z,2.99
2023-01-29T02:20:17.637Z,4.86
2023-01-29T02:23:03.847Z,2.76
2023-01-29T02:25:49.066Z,4.27
2023-01-29T02:28:34.619Z,6.51
2023-01-29T02:31:26.262Z,4.86
2023-01-29T02:34:17.816Z,4.88
2023-01-29T02:36:52.586Z,6.01
2023-01-29T02:39:34.450Z,4.49
2023-01-29T02:42:07.626Z,3.72
2023-01-29T02:44:39.691Z,4.15
2023-01-29T02:47:18.450Z,3.90
2023-01-29T02:49:56.722Z,4.63
2023-01-29T02:52:43.280Z,3.92
2023-01-29T02:55:15.971Z,5.43
2023-01-29T02:57:47.746Z,5.84
2023-01-29T03:00:22.815Z,4.40
2023-01-29T03:03:00.745Z,4.61
2023-01-29T03:06:02.276Z,1.40
2023-01-29T03:08:42.860Z,1.90
2023-01-29T03:11:15.822Z,1.75
2023-01-29T03:13:58.319Z,1.24
2023-01-29T03:16:53.026Z,4.28
2023-01-29T03:19:32.022Z,4.27
2023-01-29T03:22:04.835Z,3.70
2023-01-29T03:24:56.116Z,3.78
2023-01-29T03:27:49.398Z,2.34
2023-01-29T03:30:37.190Z,4.71
2023-01-29T03:33:26.959Z,3.13
2023-01-29T03:36:00.967Z,1.65
2023-01-29T03:38:30.023Z,4.03
2023-01-29T03:41:02.576Z,3.32
2023-01-29T03:43:38.165Z,3.41
2023-01-29T03:46:31.488Z,2.13
2023-01-29T03:49:11.990Z,3.77
2023-01-29T03:52:01.239Z,2.94
2023-01-29T03:54:52.866Z,3.55
2023-01-29T03:57:36.747Z,5.93
2023-01-29T04:00:38.483Z,5.62
2023-01-29T04:03:25.226Z,5.89
2023-01-29T04:06:09.931Z,6.97
2023-01-29T04:08:56.246Z,4.66
2023-01-29T04:11:24.828Z,6.80
2023-01-29T04:13:52.480Z,6.93
2023-01-29T04:16:31.574Z,7.73
2023-01-29T04:19:17.290Z,7.18
2023-01-29T04:21:46.658Z,5.01
2023-01-29T04:24:14.594Z,6.49
2023-01-29T04:27:00.304Z,6.87
2023-01-29T04:29:43.750Z,6.43
2023-01-29T04:32:20.848Z,5.38
2023-01-29T04:35:15.582Z,7.05
2023-01-29T04:38:21.711Z,7.03
2023-01-29T04:41:03.302Z,6.88
2023-01-29T04:43:43.910Z,7.17
2023-01-29T04:46:13.948Z,6.37
2023-01-29T04:49:17.616Z,6.73
2023-01-29T04:51:54.821Z,5.57
2023-01-29T04:54:52.300Z,6.25
2023-01-29T04:57:34.098Z,5.86
2023-01-29T05:00:24.062Z,6.29
2023-01-29T05:02:51.394Z,4.69
2023-01-29T05:05:20.220Z,5.89
2023-01-29T05:07:48.735Z,5.60
2023-01-29T05:10:19.683Z,6.54
2023-01-29T05:12:53.162Z,6.47
2023-01-29T05:15:25.649Z,5.89
2023-01-29T05:17:54.575Z,6.35
2023-01-29T05:20:21.516Z,6.29
2023-01-29T05:22:49.271Z,6.87
2023-01-29T05:25:21.170Z,6.29
2023-01-29T05:28:11.960Z,5.50
2023-01-29T05:30:40.044Z,6.27
2023-01-29T05:33:21.920Z,5.42
2023-01-29T05:35:49.477Z,4.40
2023-01-29T05:38:17.451Z,5.70
2023-01-29T05:40:44.466Z,6.38
2023-01-29T05:43:22.653Z,6.73
2023-01-29T05:46:00.400Z,6.56
2023-01-29T05:48:29.139Z,6.85
2023-01-29T05:51:03.365Z,4.85
2023-01-29T05:53:31.230Z,5.86
2023-01-29T05:56:01.812Z,5.43
2023-01-29T05:58:31.359Z,5.77
2023-01-29T06:00:58.571Z,5.26
2023-01-29T06:03:25.307Z,2.50
2023-01-29T06:05:52.044Z,3.71
2023-01-29T06:08:18.797Z,5.01
2023-01-29T06:10:45.478Z,6.35
2023-01-29T06:13:12.429Z,5.01
2023-01-29T06:15:40.824Z,3.82
2023-01-29T06:18:07.564Z,4.74
2023-01-29T06:20:34.297Z,7.67
2023-01-29T06:23:01.444Z,7.37
2023-01-29T06:25:28.770Z,7.68
2023-01-29T06:27:57.125Z,6.91
2023-01-29T06:30:25.908Z,5.45
2023-01-29T06:32:59.006Z,6.61
2023-01-29T06:35:26.152Z,4.02
2023-01-29T06:37:53.021Z,4.75
2023-01-29T06:40:19.851Z,6.04
2023-01-29T06:42:46.846Z,4.85
2023-01-29T06:45:14.249Z,5.84
2023-01-29T06:47:41.068Z,6.20
2023-01-29T06:50:08.166Z,6.78
2023-01-29T06:52:34.851Z,6.60
2023-01-29T06:55:01.916Z,7.07
2023-01-29T06:57:30.185Z,5.44
2023-01-29T06:59:56.950Z,5.98
2023-01-29T07:02:23.840Z,6.68
2023-01-29T07:04:50.680Z,6.12
2023-01-29T07:07:18.551Z,5.66
2023-01-29T07:09:45.288Z,6.54
2023-01-29T07:12:12.080Z,5.46
2023-01-29T07:14:38.746Z,6.11
2023-01-29T07:17:05.591Z,5.13
2023-01-29T07:19:32.327Z,5.72
2023-01-29T07:22:02.460Z,5.99
2023-01-29T07:24:29.644Z,5.01
2023-01-29T07:26:56.944Z,5.43
2023-01-29T07:29:23.771Z,5.66
2023-01-29T07:31:50.650Z,4.05
2023-01-29T07:34:17.467Z,5.49
2023-01-29T07:36:44.608Z,4.47
2023-01-29T07:39:11.329Z,4.57
2023-01-29T07:41:38.103Z,3.04
2023-01-29T07:44:15.185Z,5.04
2023-01-29T07:46:41.906Z,1.95
2023-01-29T07:49:08.683Z,4.28
2023-01-29T07:51:35.434Z,6.45
2023-01-29T07:54:02.475Z,5.99
2023-01-29T07:56:29.512Z,5.83
2023-01-29T07:58:56.522Z,5.95
2023-01-29T08:01:23.386Z,3.71
2023-01-29T08:03:51.390Z,2.34
2023-01-29T08:06:19.341Z,4.66
2023-01-29T08:08:46.092Z,4.32
2023-01-29T08:11:12.900Z,3.47
2023-01-29T08:13:39.770Z,4.65
2023-01-29T08:16:06.976Z,5.09
2023-01-29T08:18:34.093Z,5.13
2023-01-29T08:21:01.554Z,5.26
2023-01-29T08:23:28.517Z,7.20
2023-01-29T08:25:55.479Z,8.27
2023-01-29T08:28:22.331Z,12.16
2023-01-29T08:30:49.127Z,12.02
2023-01-29T08:33:17.547Z,13.01
2023-01-29T08:35:52.008Z,11.90
2023-01-29T08:38:19.223Z,13.24
2023-01-29T08:40:46.082Z,8.50
2023-01-29T08:43:13.973Z,11.52
2023-01-29T08:45:42.787Z,11.94
2023-01-29T08:48:10.287Z,13.52
2023-01-29T08:50:37.768Z,12.18
2023-01-29T08:53:08.250Z,14.43
2023-01-29T08:55:41.900Z,15.24
2023-01-29T08:58:10.846Z,12.09
2023-01-29T09:00:38.545Z,9.78
2023-01-29T09:03:07.733Z,9.61
2023-01-29T09:05:35.308Z,11.84
2023-01-29T09:08:03.068Z,14.48
2023-01-29T09:10:30.276Z,15.60
2023-01-29T09:12:56.955Z,15.89
2023-01-29T09:15:24.178Z,14.78
2023-01-29T09:17:51.310Z,16.18
2023-01-29T09:20:19.517Z,16.96
2023-01-29T09:22:47.200Z,15.23
2023-01-29T09:25:14.662Z,16.61
2023-01-29T09:27:42.044Z,16.60
2023-01-29T09:30:09.665Z,15.70
2023-01-29T09:32:53.908Z,16.86
2023-01-29T09:35:24.729Z,14.40
2023-01-29T09:37:52.066Z,9.08
2023-01-29T09:40:29.383Z,6.05
2023-01-29T09:43:04.638Z,5.83
2023-01-29T09:45:31.690Z,5.90
2023-01-29T09:48:05.805Z,5.43
2023-01-29T09:50:41.865Z,6.12
2023-01-29T09:53:20.036Z,6.14
2023-01-29T09:55:53.005Z,6.56
2023-01-29T09:58:31.514Z,5.77
2023-01-29T10:01:17.025Z,6.28
2023-01-29T10:03:59.070Z,5.85
2023-01-29T10:06:50.527Z,4.18
2023-01-29T10:09:31.583Z,4.12
2023-01-29T10:12:07.589Z,3.42
2023-01-29T10:15:03.896Z,6.60
2023-01-29T10:17:36.722Z,2.84
2023-01-29T10:20:18.880Z,2.86
2023-01-29T10:22:51.424Z,5.20
2023-01-29T10:25:21.536Z,4.03
2023-01-29T10:27:53.286Z,4.59
2023-01-29T10:30:29.903Z,5.62
2023-01-29T10:33:01.586Z,7.07
2023-01-29T10:35:35.655Z,6.20
2023-01-29T10:38:27.870Z,5.52
2023-01-29T10:41:02.598Z,1.76
2023-01-29T10:43:47.219Z,4.75
2023-01-29T10:46:36.175Z,4.51
2023-01-29T10:49:48.484Z,4.37
2023-01-29T10:52:40.647Z,4.88
2023-01-29T10:55:19.552Z,6.08
2023-01-29T10:58:07.742Z,4.65
2023-01-29T11:00:39.521Z,5.35
2023-01-29T11:03:33.650Z,3.53
2023-01-29T11:06:03.527Z,4.34
2023-01-29T11:08:40.110Z,3.25
2023-01-29T11:11:12.966Z,5.78
2023-01-29T11:13:54.909Z,5.29
2023-01-29T11:16:21.616Z,6.38
2023-01-29T11:18:49.910Z,6.56
2023-01-29T11:21:16.957Z,6.59
2023-01-29T11:23:43.812Z,5.79
2023-01-29T11:26:19.455Z,6.68
2023-01-29T11:28:48.751Z,4.84
2023-01-29T11:31:27.477Z,6.07
2023-01-29T11:34:04.119Z,6.43
2023-01-29T11:36:39.246Z,4.83
2023-01-29T11:39:08.916Z,7.33
2023-01-29T11:41:54.251Z,6.11
2023-01-29T11:44:33.079Z,5.43
2023-01-29T11:47:18.747Z,7.01
2023-01-29T11:49:51.039Z,6.21
2023-01-29T11:52:21.258Z,5.74
2023-01-29T11:55:03.721Z,5.90
2023-01-29T11:57:36.110Z,4.65
2023-01-29T12:00:07.407Z,2.83
2023-01-29T12:02:42.314Z,4.01
2023-01-29T12:05:21.166Z,4.08
2023-01-29T12:07:51.530Z,6.36
2023-01-29T12:10:42.483Z,6.60
2023-01-29T12:13:20.140Z,3.60
2023-01-29T12:15:48.532Z,4.69
2023-01-29T12:18:38.031Z,5.78
2023-01-29T12:21:34.293Z,6.14
2023-01-29T12:24:16.312Z,6.80
2023-01-29T12:27:01.120Z,5.36
2023-01-29T12:29:41.123Z,5.65
2023-01-29T12:32:36.070Z,4.83
2023-01-29T12:35:28.530Z,0.89
2023-01-29T12:38:08.158Z,3.65
2023-01-29T12:40:42.284Z,5.11
2023-01-29T12:43:17.187Z,5.18
2023-01-29T12:45:48.150Z,4.99
2023-01-29T12:48:23.515Z,4.21
2023-01-29T12:50:53.375Z,3.28
2023-01-29T12:53:32.673Z,5.87
2023-01-29T12:56:25.520Z,3.60
2023-01-29T12:58:55.970Z,3.66
2023-01-29T13:01:36.823Z,4.52
2023-01-29T13:04:32.623Z,3.61
2023-01-29T13:07:12.892Z,4.92
2023-01-29T13:09:45.289Z,6.81
2023-01-29T13:12:18.132Z,4.37
2023-01-29T13:15:03.748Z,3.71
2023-01-29T13:17:43.025Z,5.07
2023-01-29T13:20:18.956Z,4.61
2023-01-29T13:22:48.055Z,5.00
2023-01-29T13:25:17.752Z,4.53
2023-01-29T13:27:47.749Z,4.22
2023-01-29T13:30:31.881Z,5.64
2023-01-29T13:33:11.126Z,6.46
2023-01-29T13:35:45.188Z,6.42
2023-01-29T13:38:28.594Z,3.65
2023-01-29T13:41:05.152Z,4.81
2023-01-29T13:43:41.610Z,6.69
2023-01-29T13:46:13.397Z,6.41
2023-01-29T13:48:47.151Z,7.42
2023-01-29T13:51:20.207Z,6.99
2023-01-29T13:53:58.582Z,6.73
2023-01-29T13:56:44.694Z,7.45
2023-01-29T13:59:59.511Z,4.72
2023-01-29T14:02:28.638Z,7.94
2023-01-29T14:05:32.383Z,8.49
2023-01-29T14:08:09.379Z,5.39
2023-01-29T14:10:37.693Z,7.38
2023-01-29T14:13:04.358Z,7.83
2023-01-29T14:15:36.356Z,7.39
2023-01-29T14:18:06.228Z,8.20
2023-01-29T14:20:45.489Z,7.75
2023-01-29T14:23:47.381Z,7.41
2023-01-29T14:26:20.374Z,7.15
2023-01-29T14:28:59.119Z,6.30
2023-01-29T14:31:49.994Z,7.71
2023-01-29T14:34:23.127Z,7.06
2023-01-29T14:36:55.676Z,6.94
2023-01-29T14:39:30.052Z,7.00
2023-01-29T14:41:57.986Z,6.43
2023-01-29T14:44:55.740Z,6.69
2023-01-29T14:47:28.591Z,6.96
2023-01-29T14:49:58.544Z,6.63
2023-01-29T14:52:36.830Z,7.01
2023-01-29T14:55:08.078Z,5.82
2023-01-29T14:57:36.870Z,5.63
2023-01-29T15:00:07.692Z,7.25
2023-01-29T15:02:45.535Z,6.83
2023-01-29T15:05:19.565Z,6.51
2023-01-29T15:07:57.188Z,6.64
2023-01-29T15:10:29.194Z,5.95
2023-01-29T15:13:09.404Z,6.35
2023-01-29T15:15:57.360Z,6.42
2023-01-29T15:18:35.152Z,5.99
2023-01-29T15:21:05.804Z,6.57
2023-01-29T15:23:34.370Z,7.12
2023-01-29T15:26:05.095Z,6.52
2023-01-29T15:28:34.249Z,6.43
2023-01-29T15:31:09.971Z,7.01
2023-01-29T15:33:40.338Z,6.59
2023-01-29T15:36:08.803Z,6.21
2023-01-29T15:38:36.353Z,5.79
2023-01-29T15:41:19.308Z,6.21
2023-01-29T15:43:57.942Z,5.31
2023-01-29T15:46:28.413Z,4.84
2023-01-29T15:48:59.638Z,6.36
2023-01-29T15:51:28.048Z,6.25
2023-01-29T15:54:07.423Z,6.28
2023-01-29T15:56:44.598Z,6.41
2023-01-29T15:59:34.707Z,6.36
2023-01-29T16:02:26.634Z,6.37
2023-01-29T16:04:54.055Z,5.33
2023-01-29T16:07:21.067Z,6.96
2023-01-29T16:09:48.850Z,7.14
2023-01-29T16:12:15.958Z,6.80
2023-01-29T16:14:43.648Z,6.59
2023-01-29T16:17:22.638Z,7.11
2023-01-29T16:19:59.717Z,6.84
2023-01-29T16:22:31.383Z,7.84
2023-01-29T16:25:02.966Z,6.70
2023-01-29T16:27:31.987Z,5.88
2023-01-29T16:29:58.991Z,6.35
2023-01-29T16:32:25.776Z,6.67
2023-01-29T16:34:58.313Z,6.63
2023-01-29T16:37:30.022Z,6.45
2023-01-29T16:39:57.825Z,5.25
2023-01-29T16:42:28.466Z,6.50
2023-01-29T16:44:58.393Z,6.27
2023-01-29T16:47:39.254Z,6.72
2023-01-29T16:50:40.663Z,6.43
2023-01-29T16:53:23.314Z,6.51
2023-01-29T16:55:52.961Z,5.25
2023-01-29T16:58:23.078Z,6.72
2023-01-29T17:00:54.424Z,6.25
2023-01-29T17:03:21.741Z,6.67
2023-01-29T17:05:50.965Z,6.80
2023-01-29T17:08:38.322Z,6.30
2023-01-29T17:11:07.256Z,6.07
2023-01-29T17:13:43.817Z,5.16
2023-01-29T17:16:29.368Z,6.64
2023-01-29T17:19:35.758Z,5.49
2023-01-29T17:22:12.357Z,6.14
2023-01-29T17:24:43.883Z,5.52
2023-01-29T17:27:28.243Z,4.24
2023-01-29T17:29:55.366Z,5.69
2023-01-29T17:32:22.606Z,5.70
2023-01-29T17:34:51.029Z,5.98
2023-01-29T17:37:30.201Z,7.27
2023-01-29T17:40:18.364Z,6.57
2023-01-29T17:42:45.356Z,6.80
2023-01-29T17:45:13.117Z,6.41
2023-01-29T17:47:40.249Z,5.86
2023-01-29T17:50:21.397Z,6.47
2023-01-29T17:52:54.300Z,5.42
2023-01-29T17:55:21.230Z,6.39
2023-01-29T17:57:48.170Z,6.76
2023-01-29T18:00:27.467Z,6.11
2023-01-29T18:02:55.816Z,6.27
2023-01-29T18:05:42.671Z,6.72
2023-01-29T18:13:15.212Z,3.87
2023-01-29T18:21:52.629Z,6.83
2023-01-29T18:23:17.242Z,5.21
2023-01-29T18:25:45.301Z,6.05
2023-01-29T18:28:20.191Z,7.27
2023-01-29T18:30:47.937Z,6.70
2023-01-29T18:33:16.685Z,5.69
2023-01-29T18:35:47.848Z,6.57
2023-01-29T18:38:15.510Z,6.55
2023-01-29T18:40:44.589Z,5.85
2023-01-29T18:43:12.001Z,7.17
2023-01-29T18:45:39.331Z,5.63
2023-01-29T18:48:06.853Z,6.02
2023-01-29T18:50:34.541Z,5.96
2023-01-29T18:53:01.825Z,6.27
2023-01-29T18:55:29.008Z,6.09
2023-01-29T18:58:27.173Z,6.23
2023-01-29T19:00:45.291Z,5.58
2023-01-29T19:03:12.062Z,5.09
2023-01-29T19:05:39.132Z,4.42
2023-01-29T19:08:07.020Z,4.99
2023-01-29T19:10:34.537Z,4.15
2023-01-29T19:13:02.193Z,5.08
2023-01-29T19:15:29.987Z,5.09
2023-01-29T19:17:57.440Z,4.89
2023-01-29T19:20:25.311Z,2.84
2023-01-29T19:22:52.640Z,4.75
2023-01-29T19:25:20.051Z,4.74
2023-01-29T19:27:48.504Z,5.17
2023-01-29T19:30:17.521Z,4.48
2023-01-29T19:32:44.628Z,4.48
2023-01-29T19:35:12.003Z,5.17
2023-01-29T19:37:39.229Z,5.26
2023-01-29T19:40:08.346Z,4.83
2023-01-29T19:42:37.878Z,4.85
2023-01-29T19:45:06.164Z,3.40
2023-01-29T19:47:43.345Z,3.03
2023-01-29T19:50:12.633Z,3.81
2023-01-29T19:52:51.245Z,3.81
2023-01-29T19:55:21.415Z,2.61
2023-01-29T19:57:50.235Z,2.60
2023-01-29T20:00:18.995Z,4.22
2023-01-29T20:02:46.793Z,2.43
2023-01-29T20:05:18.500Z,1.59
2023-01-29T20:07:46.703Z,4.13
2023-01-29T20:10:17.663Z,2.59
2023-01-29T20:12:48.092Z,1.37
2023-01-29T20:15:16.423Z,3.94
2023-01-29T20:17:45.927Z,4.45
2023-01-29T20:20:14.114Z,4.03
2023-01-29T20:22:42.758Z,3.66
2023-01-29T20:25:13.681Z,3.22
2023-01-29T20:27:41.582Z,3.70
2023-01-29T20:30:10.181Z,3.79
2023-01-29T20:32:38.210Z,3.35
2023-01-29T20:35:05.850Z,3.37
2023-01-29T20:37:33.513Z,3.03
2023-01-29T20:40:00.644Z,3.22
2023-01-29T20:42:28.210Z,4.35
2023-01-29T20:44:55.786Z,2.52
2023-01-29T20:47:24.246Z,3.22
2023-01-29T20:49:51.897Z,2.74
2023-01-29T20:52:19.583Z,4.06
2023-01-29T20:54:46.727Z,4.12
2023-01-29T20:57:14.146Z,1.23
2023-01-29T20:59:41.389Z,2.14
2023-01-29T21:02:12.188Z,2.82
2023-01-29T21:04:39.999Z,2.70
2023-01-29T21:07:08.009Z,2.47
2023-01-29T21:09:35.286Z,2.47
2023-01-29T21:12:05.450Z,2.21
2023-01-29T21:14:32.905Z,2.28
2023-01-29T21:17:00.982Z,3.10
2023-01-29T21:19:29.224Z,3.36
2023-01-29T21:21:58.078Z,2.02
2023-01-29T21:24:25.413Z,2.36
2023-01-29T21:26:56.655Z,3.39
2023-01-29T21:29:23.842Z,3.14
2023-01-29T21:31:50.968Z,3.20
2023-01-29T21:34:17.860Z,3.40
2023-01-29T21:36:46.821Z,3.30
2023-01-29T21:39:26.698Z,3.07
2023-01-29T21:42:12.530Z,3.49
2023-01-29T21:44:39.468Z,3.40
2023-01-29T21:50:16.632Z,2.93
2023-01-29T21:52:43.700Z,3.16
2023-01-29T21:55:17.467Z,2.77
2023-01-29T22:01:53.407Z,1.68
2023-01-29T22:04:23.295Z,1.42
2023-01-29T22:07:12.195Z,2.04
2023-01-29T22:09:54.177Z,1.68
2023-01-29T22:12:24.716Z,0.81
2023-01-29T22:14:52.022Z,1.74
2023-01-29T22:17:49.969Z,2.22
2023-01-29T22:20:44.819Z,0.21
2023-01-29T22:23:12.804Z,1.27
2023-01-29T22:25:39.621Z,0.71
2023-01-29T22:28:07.508Z,0.99
2023-01-29T22:30:34.326Z,1.74
2023-01-29T22:33:02.077Z,1.57
2023-01-29T22:35:28.866Z,2.22
2023-01-29T22:37:55.612Z,1.28
2023-01-29T22:40:22.897Z,1.89
2023-01-29T22:42:49.735Z,1.73
2023-01-29T22:45:16.591Z,2.60
2023-01-29T22:47:43.514Z,1.57
2023-01-29T22:50:10.999Z,2.20
2023-01-29T22:52:43.000Z,1.95
2023-01-29T22:55:11.137Z,1.74
2023-01-29T22:57:38.997Z,1.87
2023-01-29T23:00:09.703Z,1.55
2023-01-29T23:02:37.368Z,0.61
2023-01-29T23:05:04.881Z,1.40
2023-01-29T23:07:31.640Z,1.71
2023-01-29T23:09:58.724Z,1.37
2023-01-29T23:12:25.424Z,1.31
2023-01-29T23:14:52.345Z,1.30
2023-01-29T23:17:19.301Z,1.40
2023-01-29T23:19:46.121Z,1.57
2023-01-29T23:22:13.497Z,1.92
2023-01-29T23:24:40.243Z,1.67
2023-01-29T23:27:25.182Z,1.04
2023-01-29T23:29:51.886Z,0.69
2023-01-29T23:32:20.282Z,-0.40
2023-01-29T23:34:47.665Z,0.18
2023-01-29T23:37:14.547Z,0.31
2023-01-29T23:39:41.297Z,0.58
2023-01-29T23:42:08.339Z,0.27
2023-01-29T23:44:35.890Z,-0.14
2023-01-29T23:47:02.969Z,-0.36
2023-01-29T23:49:29.660Z,-1.42
2023-01-29T23:51:56.357Z,-0.93
2023-01-29T23:54:23.674Z,0.58
2023-01-29T23:56:50.419Z,-0.95
2023-01-29T23:59:18.001Z,0.92
